createdAt,value
2022-08-22T00:00:31.992Z,18.82
2022-08-22T00:02:48.148Z,23.41
2022-08-22T00:02:55.385Z,19.23
2022-08-22T00:02:56.786Z,24.71
2022-08-22T00:02:58.380Z,21.94
2022-08-22T00:03:02.258Z,21.07
2022-08-22T00:03:04.820Z,23.15
2022-08-22T00:03:06.414Z,19.51
2022-08-22T00:03:10.965Z,19.30
2022-08-22T00:06:09.607Z,18.37
2022-08-22T00:08:45.193Z,18.38
2022-08-22T00:11:38.909Z,18.41
2022-08-22T00:14:15.629Z,18.48
2022-08-22T00:17:02.699Z,18.45
2022-08-22T00:19:29.131Z,18.00
2022-08-22T00:22:22.105Z,17.94
2022-08-22T00:25:02.968Z,17.91
2022-08-22T00:27:37.886Z,18.07
2022-08-22T00:30:15.813Z,18.15
2022-08-22T00:32:47.282Z,18.36
2022-08-22T00:35:25.528Z,18.29
2022-08-22T00:37:52.025Z,18.14
2022-08-22T00:40:30.462Z,18.10
2022-08-22T00:43:18.844Z,18.07
2022-08-22T00:46:02.333Z,18.04
2022-08-22T00:49:10.682Z,18.16
2022-08-22T00:52:08.919Z,17.87
2022-08-22T00:54:53.645Z,17.89
2022-08-22T00:57:41.375Z,17.98
2022-08-22T01:00:13.983Z,17.98
2022-08-22T01:02:52.709Z,18.06
2022-08-22T01:05:41.162Z,18.07
2022-08-22T01:08:30.918Z,17.90
2022-08-22T01:11:09.489Z,18.03
2022-08-22T01:14:00.276Z,17.99
2022-08-22T01:16:41.840Z,17.98
2022-08-22T01:19:28.352Z,18.06
2022-08-22T01:22:22.269Z,18.13
2022-08-22T01:25:22.440Z,18.24
2022-08-22T01:28:16.487Z,18.07
2022-08-22T01:31:17.013Z,18.16
2022-08-22T01:34:26.976Z,17.99
2022-08-22T01:37:47.808Z,17.50
2022-08-22T01:40:53.886Z,17.66
2022-08-22T01:44:00.166Z,17.71
2022-08-22T01:46:42.827Z,17.77
2022-08-22T01:49:47.968Z,17.89
2022-08-22T01:52:33.007Z,18.01
2022-08-22T01:55:07.754Z,18.00
2022-08-22T01:57:49.662Z,18.05
2022-08-22T02:00:19.267Z,17.95
2022-08-22T02:03:23.036Z,17.72
2022-08-22T02:06:02.384Z,17.54
2022-08-22T02:08:40.544Z,17.58
2022-08-22T02:11:33.433Z,17.54
2022-08-22T02:14:15.017Z,17.47
2022-08-22T02:16:45.989Z,17.45
2022-08-22T02:19:13.961Z,17.45
2022-08-22T02:21:40.604Z,17.54
2022-08-22T02:24:23.348Z,17.47
2022-08-22T02:27:05.147Z,17.47
2022-08-22T02:29:37.475Z,17.53
2022-08-22T02:32:30.163Z,17.61
2022-08-22T02:35:03.758Z,17.48
2022-08-22T02:38:07.860Z,17.24
2022-08-22T02:40:37.266Z,17.22
2022-08-22T02:43:21.840Z,17.35
2022-08-22T02:45:57.295Z,17.43
2022-08-22T02:48:33.657Z,17.59
2022-08-22T02:51:29.046Z,17.12
2022-08-22T02:54:14.146Z,17.08
2022-08-22T02:57:14.135Z,17.12
2022-08-22T03:00:32.732Z,17.16
2022-08-22T03:02:59.713Z,17.34
2022-08-22T03:05:46.171Z,17.26
2022-08-22T03:08:29.232Z,17.25
2022-08-22T03:11:00.859Z,17.14
2022-08-22T03:13:46.105Z,17.17
2022-08-22T03:16:24.196Z,17.04
2022-08-22T03:18:56.824Z,17.22
2022-08-22T03:21:41.237Z,17.10
2022-08-22T03:24:20.201Z,17.15
2022-08-22T03:26:56.778Z,17.19
2022-08-22T03:29:32.359Z,17.19
2022-08-22T03:32:04.664Z,17.15
2022-08-22T03:34:31.289Z,16.90
2022-08-22T03:37:17.594Z,16.59
2022-08-22T03:39:52.986Z,16.73
2022-08-22T03:42:41.066Z,16.98
2022-08-22T03:45:26.323Z,16.90
2022-08-22T03:48:08.199Z,16.75
2022-08-22T03:50:40.594Z,16.80
2022-08-22T03:53:38.895Z,16.80
2022-08-22T03:56:23.769Z,16.91
2022-08-22T03:58:53.365Z,16.91
2022-08-22T04:01:29.982Z,16.67
2022-08-22T04:03:59.229Z,16.77
2022-08-22T04:06:48.349Z,16.75
2022-08-22T04:09:45.707Z,16.73
2022-08-22T04:12:29.280Z,16.70
2022-08-22T04:15:14.293Z,16.80
2022-08-22T04:18:18.541Z,16.80
2022-08-22T04:21:08.555Z,16.68
2022-08-22T04:24:07.271Z,16.49
2022-08-22T04:26:36.707Z,16.60
2022-08-22T04:29:10.350Z,16.70
2022-08-22T04:31:47.467Z,16.71
2022-08-22T04:34:25.752Z,16.74
2022-08-22T04:36:57.912Z,16.75
2022-08-22T04:39:46.836Z,16.84
2022-08-22T04:42:36.913Z,16.84
2022-08-22T04:45:17.963Z,16.84
2022-08-22T04:48:03.472Z,16.84
2022-08-22T04:50:43.162Z,16.91
2022-08-22T04:53:31.557Z,16.84
2022-08-22T04:56:35.896Z,16.92
2022-08-22T04:59:10.443Z,16.63
2022-08-22T05:01:38.962Z,16.72
2022-08-22T05:04:13.243Z,16.87
2022-08-22T05:06:49.441Z,16.97
2022-08-22T05:09:22.299Z,17.06
2022-08-22T05:11:54.351Z,17.07
2022-08-22T05:14:44.440Z,17.24
2022-08-22T05:17:17.006Z,17.18
2022-08-22T05:19:50.695Z,17.32
2022-08-22T05:22:23.352Z,17.40
2022-08-22T05:24:56.362Z,17.38
2022-08-22T05:27:31.146Z,17.41
2022-08-22T05:30:24.557Z,17.52
2022-08-22T05:32:51.625Z,17.59
2022-08-22T05:35:23.112Z,17.52
2022-08-22T05:37:55.351Z,17.41
2022-08-22T05:40:26.134Z,17.50
2022-08-22T05:42:54.911Z,17.14
2022-08-22T05:45:23.039Z,17.10
2022-08-22T05:47:56.709Z,17.11
2022-08-22T05:50:35.922Z,17.36
2022-08-22T05:53:24.657Z,17.75
2022-08-22T05:56:06.586Z,17.65
2022-08-22T05:58:38.877Z,17.86
2022-08-22T06:01:22.999Z,17.95
2022-08-22T06:03:56.893Z,18.03
2022-08-22T06:06:26.845Z,18.02
2022-08-22T06:09:23.017Z,18.19
2022-08-22T06:12:05.263Z,17.99
2022-08-22T06:14:42.732Z,17.43
2022-08-22T06:17:15.248Z,17.91
2022-08-22T06:19:47.770Z,17.97
2022-08-22T06:22:18.897Z,17.95
2022-08-22T06:24:48.074Z,18.34
2022-08-22T06:27:17.498Z,18.37
2022-08-22T06:29:49.470Z,18.42
2022-08-22T06:32:31.562Z,18.54
2022-08-22T06:35:14.033Z,18.76
2022-08-22T06:37:46.043Z,18.36
2022-08-22T06:40:15.438Z,18.50
2022-08-22T06:42:43.668Z,18.58
2022-08-22T06:45:22.065Z,18.47
2022-08-22T06:48:00.621Z,18.53
2022-08-22T06:50:34.967Z,18.77
2022-08-22T06:53:10.572Z,18.98
2022-08-22T06:55:41.689Z,19.29
2022-08-22T06:58:17.409Z,19.45
2022-08-22T07:00:53.568Z,19.56
2022-08-22T07:03:36.485Z,19.58
2022-08-22T07:06:04.301Z,19.65
2022-08-22T07:08:38.473Z,19.71
2022-08-22T07:11:19.453Z,19.45
2022-08-22T07:13:55.261Z,19.34
2022-08-22T07:16:45.049Z,19.47
2022-08-22T07:19:23.809Z,19.62
2022-08-22T07:21:50.575Z,19.93
2022-08-22T07:24:22.369Z,20.01
2022-08-22T07:27:15.840Z,19.79
2022-08-22T07:30:06.942Z,20.00
2022-08-22T07:33:27.106Z,20.14
2022-08-22T07:36:05.753Z,20.18
2022-08-22T07:38:43.964Z,20.33
2022-08-22T07:41:20.143Z,20.78
2022-08-22T07:43:51.819Z,20.85
2022-08-22T07:46:30.623Z,21.18
2022-08-22T07:49:15.530Z,21.29
2022-08-22T07:51:47.014Z,21.41
2022-08-22T07:54:27.793Z,21.51
2022-08-22T07:57:08.099Z,21.69
2022-08-22T07:59:39.896Z,21.78
2022-08-22T08:02:12.213Z,22.01
2022-08-22T08:04:41.208Z,22.25
2022-08-22T08:07:11.398Z,22.44
2022-08-22T08:09:43.204Z,22.38
2022-08-22T08:12:12.176Z,22.26
2022-08-22T08:14:43.548Z,21.80
2022-08-22T08:17:27.782Z,22.11
2022-08-22T08:19:57.969Z,22.50
2022-08-22T08:22:26.986Z,22.37
2022-08-22T08:24:57.200Z,22.51
2022-08-22T08:27:50.480Z,22.41
2022-08-22T08:30:21.638Z,22.84
2022-08-22T08:32:59.618Z,23.03
2022-08-22T08:36:03.423Z,23.19
2022-08-22T08:38:37.999Z,23.34
2022-08-22T08:41:23.210Z,23.35
2022-08-22T08:44:03.930Z,23.16
2022-08-22T08:46:55.449Z,23.14
2022-08-22T08:49:25.325Z,23.28
2022-08-22T08:51:55.410Z,23.47
2022-08-22T08:54:36.236Z,23.47
2022-08-22T08:57:40.038Z,23.55
2022-08-22T09:00:16.791Z,23.56
2022-08-22T09:02:58.884Z,23.43
2022-08-22T09:05:25.436Z,23.64
2022-08-22T09:08:11.866Z,23.93
2022-08-22T09:11:09.555Z,23.90
2022-08-22T09:13:41.580Z,24.00
2022-08-22T09:16:36.683Z,24.22
2022-08-22T09:19:27.212Z,24.29
2022-08-22T09:22:50.870Z,24.27
2022-08-22T09:25:24.573Z,24.60
2022-08-22T09:28:16.430Z,24.81
2022-08-22T09:31:16.903Z,24.68
2022-08-22T09:34:05.361Z,24.69
2022-08-22T09:36:31.893Z,24.90
2022-08-22T09:39:03.624Z,25.37
2022-08-22T09:41:44.446Z,25.18
2022-08-22T09:44:17.152Z,25.49
2022-08-22T09:46:55.129Z,25.49
2022-08-22T09:49:53.823Z,25.30
2022-08-22T09:52:33.224Z,25.45
2022-08-22T09:55:47.471Z,25.37
2022-08-22T09:58:27.877Z,25.38
2022-08-22T10:01:11.944Z,25.42
2022-08-22T10:04:19.514Z,25.22
2022-08-22T10:06:46.254Z,25.09
2022-08-22T10:09:36.305Z,25.30
2022-08-22T10:12:12.837Z,25.66
2022-08-22T10:14:58.145Z,25.65
2022-08-22T10:17:40.956Z,25.48
2022-08-22T10:20:30.035Z,25.90
2022-08-22T10:23:06.935Z,25.99
2022-08-22T10:25:54.928Z,25.42
2022-08-22T10:28:44.969Z,26.08
2022-08-22T10:31:45.163Z,26.33
2022-08-22T10:34:38.548Z,26.79
2022-08-22T10:37:25.288Z,26.66
2022-08-22T10:40:02.364Z,26.80
2022-08-22T10:43:04.390Z,27.51
2022-08-22T10:45:44.674Z,27.76
2022-08-22T10:48:19.054Z,27.89
2022-08-22T10:50:52.826Z,27.48
2022-08-22T10:53:37.123Z,27.28
2022-08-22T10:56:11.448Z,27.36
2022-08-22T10:59:08.163Z,27.58
2022-08-22T11:01:44.734Z,27.35
2022-08-22T11:04:28.498Z,27.63
2022-08-22T11:07:35.374Z,28.30
2022-08-22T11:10:09.225Z,28.44
2022-08-22T11:12:44.485Z,28.31
2022-08-22T11:15:44.865Z,28.04
2022-08-22T11:18:57.956Z,28.19
2022-08-22T11:21:38.460Z,28.11
2022-08-22T11:24:34.793Z,28.62
2022-08-22T11:27:14.942Z,28.69
2022-08-22T11:29:47.226Z,28.84
2022-08-22T11:32:41.256Z,28.74
2022-08-22T11:35:21.749Z,28.85
2022-08-22T11:38:05.045Z,29.05
2022-08-22T11:40:59.394Z,28.82
2022-08-22T11:43:57.526Z,29.00
2022-08-22T11:46:40.801Z,29.21
2022-08-22T11:49:28.517Z,28.62
2022-08-22T11:51:59.142Z,29.09
2022-08-22T11:54:37.735Z,29.43
2022-08-22T11:57:25.497Z,29.50
2022-08-22T12:00:20.810Z,28.68
2022-08-22T12:03:05.477Z,29.10
2022-08-22T12:05:36.132Z,29.09
2022-08-22T12:08:13.435Z,29.21
2022-08-22T12:10:55.703Z,29.09
2022-08-22T12:13:38.240Z,29.18
2022-08-22T12:16:14.144Z,29.08
2022-08-22T12:19:06.063Z,28.85
2022-08-22T12:22:15.198Z,29.17
2022-08-22T12:25:22.531Z,29.71
2022-08-22T12:28:07.548Z,29.84
2022-08-22T12:30:43.583Z,29.63
2022-08-22T12:33:10.551Z,29.80
2022-08-22T12:36:00.082Z,30.48
2022-08-22T12:38:44.644Z,30.44
2022-08-22T12:41:35.704Z,30.04
2022-08-22T12:44:17.340Z,30.00
2022-08-22T12:47:06.000Z,29.55
2022-08-22T12:50:03.429Z,30.38
2022-08-22T12:53:18.143Z,30.27
2022-08-22T12:56:01.709Z,29.87
2022-08-22T12:59:06.542Z,29.44
2022-08-22T13:01:43.358Z,29.69
2022-08-22T13:04:32.641Z,29.00
2022-08-22T13:07:34.529Z,28.98
2022-08-22T13:10:30.999Z,28.88
2022-08-22T13:12:59.932Z,29.36
2022-08-22T13:15:44.383Z,29.60
2022-08-22T13:18:30.533Z,29.94
2022-08-22T13:21:02.277Z,29.37
2022-08-22T13:23:39.875Z,29.07
2022-08-22T13:26:31.756Z,29.74
2022-08-22T13:29:24.785Z,29.25
2022-08-22T13:31:56.276Z,29.67
2022-08-22T13:34:55.061Z,29.17
2022-08-22T13:37:28.771Z,29.14
2022-08-22T13:40:01.858Z,29.39
2022-08-22T13:42:32.450Z,29.60
2022-08-22T13:45:05.141Z,30.26
2022-08-22T13:47:35.829Z,30.60
2022-08-22T13:50:12.505Z,30.53
2022-08-22T13:52:43.439Z,30.21
2022-08-22T13:55:29.555Z,30.29
2022-08-22T13:58:31.611Z,30.21
2022-08-22T14:01:09.979Z,30.13
2022-08-22T14:04:26.669Z,30.40
2022-08-22T14:07:06.047Z,30.32
2022-08-22T14:09:59.984Z,30.42
2022-08-22T14:12:50.829Z,30.15
2022-08-22T14:15:33.919Z,29.66
2022-08-22T14:18:15.916Z,29.77
2022-08-22T14:20:46.586Z,29.73
2022-08-22T14:23:24.208Z,29.52
2022-08-22T14:25:54.088Z,29.54
2022-08-22T14:28:35.513Z,29.91
2022-08-22T14:31:13.556Z,30.06
2022-08-22T14:33:48.542Z,29.57
2022-08-22T14:36:27.492Z,29.65
2022-08-22T14:39:10.085Z,29.30
2022-08-22T14:41:56.244Z,29.25
2022-08-22T14:44:34.080Z,29.22
2022-08-22T14:47:04.768Z,29.31
2022-08-22T14:49:56.115Z,29.48
2022-08-22T14:52:45.419Z,29.16
2022-08-22T14:55:17.792Z,29.51
2022-08-22T14:57:50.580Z,28.88
2022-08-22T15:00:38.230Z,28.96
2022-08-22T15:03:14.676Z,28.80
2022-08-22T15:05:49.379Z,28.62
2022-08-22T15:08:27.915Z,28.58
2022-08-22T15:11:13.085Z,28.39
2022-08-22T15:13:50.282Z,28.49
2022-08-22T15:16:24.605Z,28.52
2022-08-22T15:18:51.555Z,28.69
2022-08-22T15:21:26.062Z,28.43
2022-08-22T15:23:56.185Z,28.49
2022-08-22T15:26:36.174Z,28.86
2022-08-22T15:29:18.473Z,28.71
2022-08-22T15:31:51.486Z,28.67
2022-08-22T15:34:41.874Z,28.84
2022-08-22T15:37:20.409Z,28.99
2022-08-22T15:40:12.864Z,29.02
2022-08-22T15:42:47.066Z,28.78
2022-08-22T15:45:36.185Z,28.75
2022-08-22T15:48:09.767Z,28.83
2022-08-22T15:50:55.054Z,28.92
2022-08-22T15:53:30.634Z,28.67
2022-08-22T15:56:06.688Z,28.68
2022-08-22T15:58:40.214Z,28.74
2022-08-22T16:01:19.738Z,27.67
2022-08-22T16:04:02.007Z,26.86
2022-08-22T16:06:50.490Z,25.96
2022-08-22T16:09:42.710Z,25.83
2022-08-22T16:12:35.202Z,25.38
2022-08-22T16:15:26.227Z,24.56
2022-08-22T16:17:54.057Z,23.64
2022-08-22T16:20:20.527Z,23.81
2022-08-22T16:22:58.968Z,23.80
2022-08-22T16:25:50.318Z,24.24
2022-08-22T16:28:36.132Z,24.31
2022-08-22T16:31:28.063Z,24.22
2022-08-22T16:33:58.868Z,23.97
2022-08-22T16:36:43.297Z,23.80
2022-08-22T16:39:32.908Z,23.48
2022-08-22T16:42:22.359Z,23.12
2022-08-22T16:44:55.789Z,22.99
2022-08-22T16:47:56.663Z,23.31
2022-08-22T16:50:31.048Z,23.39
2022-08-22T16:53:00.125Z,23.86
2022-08-22T16:55:29.878Z,23.56
2022-08-22T16:58:11.758Z,23.09
2022-08-22T17:01:02.672Z,23.12
2022-08-22T17:03:32.181Z,23.37
2022-08-22T17:06:04.871Z,23.41
2022-08-22T17:08:40.110Z,23.12
2022-08-22T17:11:34.366Z,23.00
2022-08-22T17:14:03.911Z,23.15
2022-08-22T17:16:42.488Z,22.95
2022-08-22T17:19:11.725Z,22.96
2022-08-22T17:21:55.321Z,22.72
2022-08-22T17:24:44.855Z,22.66
2022-08-22T17:27:32.117Z,22.94
2022-08-22T17:30:19.580Z,22.91
2022-08-22T17:33:14.949Z,23.17
2022-08-22T17:35:55.198Z,23.11
2022-08-22T17:38:39.517Z,23.21
2022-08-22T17:41:33.653Z,23.39
2022-08-22T17:44:21.201Z,23.32
2022-08-22T17:46:54.543Z,22.48
2022-08-22T17:50:05.987Z,22.91
2022-08-22T17:52:45.503Z,22.70
2022-08-22T17:55:16.558Z,22.58
2022-08-22T17:57:55.818Z,22.69
2022-08-22T18:00:28.420Z,22.64
2022-08-22T18:03:09.965Z,22.50
2022-08-22T18:05:47.256Z,22.44
2022-08-22T18:11:42.767Z,22.67
2022-08-22T18:14:23.890Z,22.48
2022-08-22T18:16:53.293Z,22.52
2022-08-22T18:19:34.758Z,22.72
2022-08-22T18:22:06.789Z,22.89
2022-08-22T18:25:15.503Z,22.96
2022-08-22T18:27:56.064Z,23.00
2022-08-22T18:30:59.433Z,23.15
2022-08-22T18:33:42.533Z,22.99
2022-08-22T18:36:13.533Z,23.00
2022-08-22T18:39:20.373Z,23.17
2022-08-22T18:42:31.739Z,23.09
2022-08-22T18:44:58.301Z,23.04
2022-08-22T18:47:29.941Z,23.09
2022-08-22T18:49:56.894Z,23.01
2022-08-22T18:52:26.152Z,23.14
2022-08-22T18:55:17.577Z,23.16
2022-08-22T18:58:22.952Z,23.16
2022-08-22T19:01:01.743Z,23.06
2022-08-22T19:03:37.128Z,23.06
2022-08-22T19:06:25.442Z,23.06
2022-08-22T19:09:11.622Z,23.12
2022-08-22T19:11:50.370Z,23.09
2022-08-22T19:14:29.190Z,22.90
2022-08-22T19:17:15.419Z,22.99
2022-08-22T19:20:38.319Z,23.13
2022-08-22T19:23:33.868Z,23.12
2022-08-22T19:26:40.165Z,23.02
2022-08-22T19:29:18.609Z,23.16
2022-08-22T19:31:45.555Z,23.25
2022-08-22T19:34:35.398Z,23.16
2022-08-22T19:37:33.341Z,23.00
2022-08-22T19:40:09.921Z,23.08
2022-08-22T19:42:43.137Z,23.18
2022-08-22T19:45:31.020Z,22.98
2022-08-22T19:48:09.457Z,22.94
2022-08-22T19:50:39.106Z,22.89
2022-08-22T19:53:15.029Z,22.95
2022-08-22T19:56:09.535Z,22.92
2022-08-22T19:59:04.256Z,22.98
2022-08-22T20:01:39.939Z,23.08
2022-08-22T20:04:27.408Z,23.07
2022-08-22T20:06:56.724Z,22.80
2022-08-22T20:09:48.067Z,22.67
2022-08-22T20:12:25.855Z,22.74
2022-08-22T20:14:52.620Z,22.74
2022-08-22T20:17:25.130Z,22.75
2022-08-22T20:22:43.084Z,22.64
2022-08-22T20:25:43.638Z,22.71
2022-08-22T20:28:25.009Z,22.79
2022-08-22T20:30:57.804Z,22.43
2022-08-22T20:33:30.083Z,22.75
2022-08-22T20:36:01.539Z,22.74
2022-08-22T20:38:55.636Z,22.66
2022-08-22T20:41:31.792Z,22.80
2022-08-22T20:44:24.484Z,22.83
2022-08-22T20:46:56.312Z,22.86
2022-08-22T20:49:31.192Z,22.76
2022-08-22T20:52:10.677Z,22.78
2022-08-22T20:54:39.772Z,22.77
2022-08-22T20:57:19.970Z,22.79
2022-08-22T20:59:55.774Z,22.81
2022-08-22T21:02:30.103Z,22.78
2022-08-22T21:04:56.934Z,22.78
2022-08-22T21:07:31.213Z,22.82
2022-08-22T21:10:25.168Z,22.77
2022-08-22T21:13:22.818Z,22.80
2022-08-22T21:15:53.062Z,22.74
2022-08-22T21:18:40.186Z,22.77
2022-08-22T21:21:17.478Z,22.73
2022-08-22T21:24:00.529Z,22.68
2022-08-22T21:26:28.912Z,22.60
2022-08-22T21:29:01.978Z,22.75
2022-08-22T21:31:51.058Z,22.68
2022-08-22T21:34:22.545Z,22.98
2022-08-22T21:36:54.761Z,23.02
2022-08-22T21:39:24.977Z,22.82
2022-08-22T21:41:58.972Z,22.80
2022-08-22T21:44:31.545Z,22.84
2022-08-22T21:47:31.856Z,22.78
2022-08-22T21:50:23.185Z,22.73
2022-08-22T21:53:11.800Z,22.89
2022-08-22T21:55:46.949Z,22.91
2022-08-22T21:58:35.179Z,22.88
2022-08-22T22:01:28.022Z,22.73
2022-08-22T22:03:55.614Z,22.87
2022-08-22T22:06:22.142Z,22.82
2022-08-22T22:08:48.949Z,23.00
2022-08-22T22:11:16.174Z,23.02
2022-08-22T22:13:43.049Z,23.10
2022-08-22T22:16:12.127Z,23.02
2022-08-22T22:18:39.108Z,22.94
2022-08-22T22:21:05.653Z,23.02
2022-08-22T22:23:32.339Z,23.03
2022-08-22T22:26:02.485Z,22.90
2022-08-22T22:28:32.531Z,22.94
2022-08-22T22:30:59.348Z,22.94
2022-08-22T22:33:29.919Z,22.98
2022-08-22T22:35:59.973Z,22.92
2022-08-22T22:38:26.489Z,22.82
2022-08-22T22:40:52.993Z,22.90
2022-08-22T22:43:19.902Z,23.01
2022-08-22T22:45:46.576Z,22.99
2022-08-22T22:48:24.123Z,23.04
2022-08-22T22:50:52.895Z,23.05
2022-08-22T22:53:21.274Z,23.02
2022-08-22T22:56:00.218Z,22.97
2022-08-22T22:58:27.835Z,22.78
2022-08-22T23:00:54.371Z,22.93
2022-08-22T23:03:20.942Z,22.69
2022-08-22T23:05:47.432Z,22.87
2022-08-22T23:08:14.043Z,22.96
2022-08-22T23:10:40.560Z,23.02
2022-08-22T23:13:07.152Z,23.02
2022-08-22T23:15:33.648Z,23.05
2022-08-22T23:18:00.357Z,22.85
2022-08-22T23:20:26.899Z,22.79
2022-08-22T23:22:53.485Z,23.06
2022-08-22T23:25:20.070Z,23.04
2022-08-22T23:27:52.156Z,22.98
2022-08-22T23:30:19.036Z,23.09
2022-08-22T23:32:45.509Z,23.09
2022-08-22T23:35:11.935Z,23.02
2022-08-22T23:37:38.426Z,23.01
2022-08-22T23:40:08.158Z,23.20
2022-08-22T23:42:34.950Z,23.09
2022-08-22T23:45:01.481Z,23.11
2022-08-22T23:47:27.919Z,23.15
2022-08-22T23:49:54.415Z,23.19
2022-08-22T23:52:20.876Z,23.08
2022-08-22T23:54:47.714Z,23.15
2022-08-22T23:57:20.854Z,23.03
2022-08-22T23:59:58.252Z,23.22
